Orlando, Florida
Traffic Map
Current Weather Conditions
Orlando, Florida
Clear
Clear
14°
Feels Like: 14°
Wind Chill: 14° Ceiling: Unl
Heat Index: 14° Visibility: 10mi
Dew Point: Wind: 0mph
Humidity: 74% Direction: ° ()
Pressure: 30.12in Gusts: 0mph
Raw Report DataKORL 190153Z 00000KT 10SM CLR 14/09 A3012 RMK AO2 SLP203 T01390094
Traffic Incident Summary
Active as of:
Severity:
Category:
InformationThere was an issue retrieving the traffic information for this location. Please try a different location or try again shortly.
Advertisements
Track Severe Weather on mobile